Portada
METAR-TAF:

METAR-TAF

Aeropuertos :

Irkutsk, Rusia

Aeropuerto Internacional de Irkutsk

latitud: 52-16N, longitud: 104-19E, altitud: 513 m

Observación

El informe se hizo hace 33 minutos, a las 15:00 UTC
Viento 2 kt con dirección variable
Temperatura -32°C
Humedad 74%
Presión 1035 hPa
Visibilidad 10 km o más
sin nubes por debajo de 1500 m y sin presencia de cumulonimbus.

METAR: UIII 231500Z VRB01MPS CAVOK M32/M35 Q1035 R30/810550 NOSIG RMK QFE731/0975

Hora: 23:33 (15:33 UTC)

Pronóstico

El informe se hizo hace 1 hora y 33 minutos, a las 14:00 UTC
Pronóstico válido del 23 a las 15 UTC al 24 a las 15 UTC
Viento 2 kt con dirección variable
Visibilidad: 3100 m
Nubes dispersas a una altura de 1100 ft
neblina, humo
Temporalmente
del 23 a las 15 UTC al 24 a las 04 UTC
Visibilidad: 0900 m
a una altura de 100 ft
niebla

TAF: UIII 231400Z 2315/2415 VRB01MPS 3100 BR FU SCT011 TEMPO 2315/2404 0900 FG VV001

Observaciones y pronósticos meteorológicos de más de 4000 aeropuertos (mensajes METAR y TAF).

Los puntos amarillos y rojos representan las estaciones disponibles.

Ponga el ratón en el punto deseado para ver el nombre de la estación.

Haga clic para ver las observaciones y los pronósticos meteorológicos.

Para cambiar el mapa : haga clic en los botones verdes con una cruz de color negro para hacer un zoom, en el botón verde con un guión para alejar o en las flechas verdes para mapas adyacentes.


METAR-TAF: